sensor_id;sensor_type;location;lat;lon;timestamp;P1;durP1;ratioP1;P2;durP2;ratioP2
32533;SDS011;18973;48.580;8.912;2024-03-22T00:00:15;12.40;;;8.82;;
32533;SDS011;18973;48.580;8.912;2024-03-22T00:02:41;14.85;;;9.27;;
32533;SDS011;18973;48.580;8.912;2024-03-22T00:05:07;16.27;;;9.93;;
32533;SDS011;18973;48.580;8.912;2024-03-22T00:07:33;19.10;;;9.95;;
32533;SDS011;18973;48.580;8.912;2024-03-22T00:09:58;21.15;;;10.90;;
32533;SDS011;18973;48.580;8.912;2024-03-22T00:12:25;15.85;;;9.20;;
32533;SDS011;18973;48.580;8.912;2024-03-22T00:14:50;14.65;;;9.52;;
32533;SDS011;18973;48.580;8.912;2024-03-22T00:17:19;13.45;;;8.98;;
32533;SDS011;18973;48.580;8.912;2024-03-22T00:19:45;13.48;;;9.23;;
32533;SDS011;18973;48.580;8.912;2024-03-22T00:22:11;14.50;;;9.65;;
32533;SDS011;18973;48.580;8.912;2024-03-22T00:24:36;18.00;;;10.98;;
32533;SDS011;18973;48.580;8.912;2024-03-22T00:27:02;18.80;;;11.15;;
32533;SDS011;18973;48.580;8.912;2024-03-22T00:29:28;18.95;;;11.15;;
32533;SDS011;18973;48.580;8.912;2024-03-22T00:31:53;17.90;;;10.52;;
32533;SDS011;18973;48.580;8.912;2024-03-22T00:34:19;17.13;;;11.40;;
32533;SDS011;18973;48.580;8.912;2024-03-22T00:36:44;19.33;;;10.82;;
32533;SDS011;18973;48.580;8.912;2024-03-22T00:39:11;15.82;;;10.55;;
32533;SDS011;18973;48.580;8.912;2024-03-22T00:41:37;14.95;;;10.50;;
32533;SDS011;18973;48.580;8.912;2024-03-22T00:44:03;18.25;;;11.00;;
32533;SDS011;18973;48.580;8.912;2024-03-22T00:46:29;18.10;;;11.90;;
32533;SDS011;18973;48.580;8.912;2024-03-22T00:48:54;15.00;;;11.30;;
32533;SDS011;18973;48.580;8.912;2024-03-22T00:51:20;16.88;;;11.60;;
32533;SDS011;18973;48.580;8.912;2024-03-22T00:53:46;17.33;;;12.02;;
32533;SDS011;18973;48.580;8.912;2024-03-22T00:56:11;20.80;;;12.35;;
32533;SDS011;18973;48.580;8.912;2024-03-22T00:58:37;18.98;;;12.27;;
32533;SDS011;18973;48.580;8.912;2024-03-22T01:01:03;17.40;;;11.63;;
32533;SDS011;18973;48.580;8.912;2024-03-22T01:03:29;21.60;;;11.65;;
32533;SDS011;18973;48.580;8.912;2024-03-22T01:05:54;19.25;;;11.82;;
32533;SDS011;18973;48.580;8.912;2024-03-22T01:08:22;19.27;;;11.93;;
32533;SDS011;18973;48.580;8.912;2024-03-22T01:10:48;16.15;;;11.20;;
32533;SDS011;18973;48.580;8.912;2024-03-22T01:13:13;19.33;;;11.85;;
32533;SDS011;18973;48.580;8.912;2024-03-22T01:15:40;18.80;;;13.32;;
32533;SDS011;18973;48.580;8.912;2024-03-22T01:18:05;18.88;;;13.10;;
32533;SDS011;18973;48.580;8.912;2024-03-22T01:20:31;18.00;;;12.77;;
32533;SDS011;18973;48.580;8.912;2024-03-22T01:22:58;18.08;;;12.15;;
32533;SDS011;18973;48.580;8.912;2024-03-22T01:25:25;20.90;;;13.07;;
32533;SDS011;18973;48.580;8.912;2024-03-22T01:27:52;20.10;;;11.27;;
32533;SDS011;18973;48.580;8.912;2024-03-22T01:30:17;21.88;;;11.93;;
32533;SDS011;18973;48.580;8.912;2024-03-22T01:32:43;19.25;;;12.77;;
32533;SDS011;18973;48.580;8.912;2024-03-22T01:35:09;17.45;;;11.70;;
32533;SDS011;18973;48.580;8.912;2024-03-22T01:37:35;18.67;;;11.80;;
32533;SDS011;18973;48.580;8.912;2024-03-22T01:40:00;18.35;;;11.77;;
32533;SDS011;18973;48.580;8.912;2024-03-22T01:42:27;21.33;;;12.35;;
32533;SDS011;18973;48.580;8.912;2024-03-22T01:44:52;24.30;;;13.27;;
32533;SDS011;18973;48.580;8.912;2024-03-22T01:47:18;24.40;;;12.38;;
32533;SDS011;18973;48.580;8.912;2024-03-22T01:49:44;21.38;;;13.38;;
32533;SDS011;18973;48.580;8.912;2024-03-22T01:52:09;22.98;;;13.55;;
32533;SDS011;18973;48.580;8.912;2024-03-22T01:54:35;20.27;;;13.63;;
32533;SDS011;18973;48.580;8.912;2024-03-22T01:57:01;20.85;;;12.63;;
32533;SDS011;18973;48.580;8.912;2024-03-22T01:59:28;26.70;;;14.13;;
32533;SDS011;18973;48.580;8.912;2024-03-22T02:01:55;18.10;;;11.52;;
32533;SDS011;18973;48.580;8.912;2024-03-22T02:04:20;18.40;;;11.43;;
32533;SDS011;18973;48.580;8.912;2024-03-22T02:06:46;18.23;;;10.70;;
32533;SDS011;18973;48.580;8.912;2024-03-22T02:09:12;16.15;;;10.05;;
32533;SDS011;18973;48.580;8.912;2024-03-22T02:11:37;15.55;;;10.80;;
32533;SDS011;18973;48.580;8.912;2024-03-22T02:14:05;18.00;;;10.35;;
32533;SDS011;18973;48.580;8.912;2024-03-22T02:16:30;14.95;;;9.80;;
32533;SDS011;18973;48.580;8.912;2024-03-22T02:18:56;17.42;;;10.40;;
32533;SDS011;18973;48.580;8.912;2024-03-22T02:21:22;13.88;;;9.45;;
32533;SDS011;18973;48.580;8.912;2024-03-22T02:23:47;15.70;;;10.27;;
32533;SDS011;18973;48.580;8.912;2024-03-22T02:26:13;14.95;;;9.95;;
32533;SDS011;18973;48.580;8.912;2024-03-22T02:28:39;14.05;;;9.82;;
32533;SDS011;18973;48.580;8.912;2024-03-22T02:31:04;15.30;;;9.43;;
32533;SDS011;18973;48.580;8.912;2024-03-22T02:33:30;14.02;;;9.85;;
32533;SDS011;18973;48.580;8.912;2024-03-22T02:35:56;14.07;;;9.77;;
32533;SDS011;18973;48.580;8.912;2024-03-22T02:38:22;16.45;;;9.02;;
32533;SDS011;18973;48.580;8.912;2024-03-22T02:40:50;19.05;;;10.35;;
32533;SDS011;18973;48.580;8.912;2024-03-22T02:43:17;15.80;;;10.60;;
32533;SDS011;18973;48.580;8.912;2024-03-22T02:45:44;15.07;;;9.68;;
32533;SDS011;18973;48.580;8.912;2024-03-22T02:48:10;13.82;;;9.68;;
32533;SDS011;18973;48.580;8.912;2024-03-22T02:50:36;17.80;;;10.38;;
32533;SDS011;18973;48.580;8.912;2024-03-22T02:53:03;19.42;;;10.35;;
32533;SDS011;18973;48.580;8.912;2024-03-22T02:55:29;15.57;;;10.27;;
32533;SDS011;18973;48.580;8.912;2024-03-22T02:57:56;16.58;;;10.23;;
32533;SDS011;18973;48.580;8.912;2024-03-22T03:00:22;19.75;;;10.57;;
32533;SDS011;18973;48.580;8.912;2024-03-22T03:02:48;15.55;;;10.65;;
32533;SDS011;18973;48.580;8.912;2024-03-22T03:05:14;17.30;;;10.63;;
32533;SDS011;18973;48.580;8.912;2024-03-22T03:07:40;17.13;;;11.15;;
32533;SDS011;18973;48.580;8.912;2024-03-22T03:10:06;18.75;;;10.50;;
32533;SDS011;18973;48.580;8.912;2024-03-22T03:12:32;22.40;;;10.88;;
32533;SDS011;18973;48.580;8.912;2024-03-22T03:14:58;21.17;;;10.05;;
32533;SDS011;18973;48.580;8.912;2024-03-22T03:17:24;17.45;;;10.63;;
32533;SDS011;18973;48.580;8.912;2024-03-22T03:19:49;14.75;;;10.05;;
32533;SDS011;18973;48.580;8.912;2024-03-22T03:22:15;19.52;;;11.50;;
32533;SDS011;18973;48.580;8.912;2024-03-22T03:24:41;16.92;;;9.80;;
32533;SDS011;18973;48.580;8.912;2024-03-22T03:27:06;21.25;;;11.18;;
32533;SDS011;18973;48.580;8.912;2024-03-22T03:29:32;17.13;;;10.48;;
32533;SDS011;18973;48.580;8.912;2024-03-22T03:31:58;20.45;;;9.88;;
32533;SDS011;18973;48.580;8.912;2024-03-22T03:34:24;17.50;;;10.23;;
32533;SDS011;18973;48.580;8.912;2024-03-22T03:36:50;14.57;;;9.88;;
32533;SDS011;18973;48.580;8.912;2024-03-22T03:39:15;17.40;;;10.57;;
32533;SDS011;18973;48.580;8.912;2024-03-22T03:41:41;16.10;;;10.32;;
32533;SDS011;18973;48.580;8.912;2024-03-22T03:44:06;15.43;;;9.98;;
32533;SDS011;18973;48.580;8.912;2024-03-22T03:46:32;21.73;;;9.50;;
32533;SDS011;18973;48.580;8.912;2024-03-22T03:48:58;19.35;;;10.32;;
32533;SDS011;18973;48.580;8.912;2024-03-22T03:51:24;15.63;;;10.55;;
32533;SDS011;18973;48.580;8.912;2024-03-22T03:53:49;17.08;;;10.40;;
32533;SDS011;18973;48.580;8.912;2024-03-22T03:56:15;18.20;;;9.93;;
32533;SDS011;18973;48.580;8.912;2024-03-22T03:58:41;18.25;;;10.25;;
32533;SDS011;18973;48.580;8.912;2024-03-22T04:01:07;16.45;;;10.57;;
32533;SDS011;18973;48.580;8.912;2024-03-22T04:03:33;13.63;;;9.00;;
32533;SDS011;18973;48.580;8.912;2024-03-22T04:05:59;17.98;;;10.07;;
32533;SDS011;18973;48.580;8.912;2024-03-22T04:08:25;18.00;;;11.20;;
32533;SDS011;18973;48.580;8.912;2024-03-22T04:10:54;14.82;;;9.98;;
32533;SDS011;18973;48.580;8.912;2024-03-22T04:13:23;16.25;;;10.25;;
32533;SDS011;18973;48.580;8.912;2024-03-22T04:15:49;15.15;;;10.30;;
32533;SDS011;18973;48.580;8.912;2024-03-22T04:18:15;15.43;;;10.05;;
32533;SDS011;18973;48.580;8.912;2024-03-22T04:20:41;13.50;;;9.27;;
32533;SDS011;18973;48.580;8.912;2024-03-22T04:23:08;15.90;;;9.48;;
32533;SDS011;18973;48.580;8.912;2024-03-22T04:25:34;16.52;;;10.02;;
32533;SDS011;18973;48.580;8.912;2024-03-22T04:28:00;19.25;;;10.00;;
32533;SDS011;18973;48.580;8.912;2024-03-22T04:30:26;14.90;;;10.70;;
32533;SDS011;18973;48.580;8.912;2024-03-22T04:32:51;17.35;;;9.80;;
32533;SDS011;18973;48.580;8.912;2024-03-22T04:35:17;20.50;;;10.40;;
32533;SDS011;18973;48.580;8.912;2024-03-22T04:37:43;16.10;;;9.68;;
32533;SDS011;18973;48.580;8.912;2024-03-22T04:40:08;15.50;;;8.85;;
32533;SDS011;18973;48.580;8.912;2024-03-22T04:42:35;16.73;;;9.80;;
32533;SDS011;18973;48.580;8.912;2024-03-22T04:45:01;14.05;;;9.25;;
32533;SDS011;18973;48.580;8.912;2024-03-22T04:47:26;16.27;;;9.88;;
32533;SDS011;18973;48.580;8.912;2024-03-22T04:49:52;15.25;;;9.63;;
32533;SDS011;18973;48.580;8.912;2024-03-22T04:52:18;13.88;;;8.73;;
32533;SDS011;18973;48.580;8.912;2024-03-22T04:54:43;20.08;;;10.13;;
32533;SDS011;18973;48.580;8.912;2024-03-22T04:57:09;17.00;;;9.60;;
32533;SDS011;18973;48.580;8.912;2024-03-22T04:59:35;19.63;;;10.68;;
32533;SDS011;18973;48.580;8.912;2024-03-22T05:02:00;15.00;;;10.82;;
32533;SDS011;18973;48.580;8.912;2024-03-22T05:04:26;14.82;;;9.32;;
32533;SDS011;18973;48.580;8.912;2024-03-22T05:06:51;17.27;;;9.95;;
32533;SDS011;18973;48.580;8.912;2024-03-22T05:09:17;14.68;;;9.35;;
32533;SDS011;18973;48.580;8.912;2024-03-22T05:11:43;14.63;;;9.52;;
32533;SDS011;18973;48.580;8.912;2024-03-22T05:14:11;15.50;;;9.52;;
32533;SDS011;18973;48.580;8.912;2024-03-22T05:16:37;17.77;;;9.95;;
32533;SDS011;18973;48.580;8.912;2024-03-22T05:19:03;17.70;;;10.60;;
32533;SDS011;18973;48.580;8.912;2024-03-22T05:21:28;21.05;;;10.65;;
32533;SDS011;18973;48.580;8.912;2024-03-22T05:23:54;15.38;;;9.52;;
32533;SDS011;18973;48.580;8.912;2024-03-22T05:26:20;16.50;;;10.25;;
32533;SDS011;18973;48.580;8.912;2024-03-22T05:28:45;15.88;;;9.25;;
32533;SDS011;18973;48.580;8.912;2024-03-22T05:31:11;15.60;;;9.57;;
32533;SDS011;18973;48.580;8.912;2024-03-22T05:33:37;16.02;;;9.35;;
32533;SDS011;18973;48.580;8.912;2024-03-22T05:36:02;13.85;;;9.75;;
32533;SDS011;18973;48.580;8.912;2024-03-22T05:38:28;14.50;;;9.63;;
32533;SDS011;18973;48.580;8.912;2024-03-22T05:40:54;18.40;;;10.00;;
32533;SDS011;18973;48.580;8.912;2024-03-22T05:43:20;14.63;;;9.98;;
32533;SDS011;18973;48.580;8.912;2024-03-22T05:45:45;12.93;;;9.18;;
32533;SDS011;18973;48.580;8.912;2024-03-22T05:48:11;14.77;;;8.95;;
32533;SDS011;18973;48.580;8.912;2024-03-22T05:50:36;13.52;;;10.05;;
32533;SDS011;18973;48.580;8.912;2024-03-22T05:53:02;14.70;;;8.57;;
32533;SDS011;18973;48.580;8.912;2024-03-22T05:55:28;19.23;;;9.93;;
32533;SDS011;18973;48.580;8.912;2024-03-22T05:57:56;17.70;;;10.02;;
32533;SDS011;18973;48.580;8.912;2024-03-22T06:00:22;13.50;;;9.05;;
32533;SDS011;18973;48.580;8.912;2024-03-22T06:02:47;16.35;;;9.45;;
32533;SDS011;18973;48.580;8.912;2024-03-22T06:05:13;15.75;;;9.32;;
32533;SDS011;18973;48.580;8.912;2024-03-22T06:07:39;17.13;;;9.32;;
32533;SDS011;18973;48.580;8.912;2024-03-22T06:10:07;11.18;;;8.55;;
32533;SDS011;18973;48.580;8.912;2024-03-22T06:12:34;12.15;;;9.30;;
32533;SDS011;18973;48.580;8.912;2024-03-22T06:15:01;14.73;;;10.18;;
32533;SDS011;18973;48.580;8.912;2024-03-22T06:17:30;16.17;;;9.18;;
32533;SDS011;18973;48.580;8.912;2024-03-22T06:19:55;17.33;;;9.27;;
32533;SDS011;18973;48.580;8.912;2024-03-22T06:22:21;19.83;;;9.98;;
32533;SDS011;18973;48.580;8.912;2024-03-22T06:24:46;20.15;;;10.52;;
32533;SDS011;18973;48.580;8.912;2024-03-22T06:27:12;35.50;;;15.68;;
32533;SDS011;18973;48.580;8.912;2024-03-22T06:29:39;24.75;;;11.95;;
32533;SDS011;18973;48.580;8.912;2024-03-22T06:32:05;18.98;;;11.50;;
32533;SDS011;18973;48.580;8.912;2024-03-22T06:34:31;18.20;;;10.27;;
32533;SDS011;18973;48.580;8.912;2024-03-22T06:36:56;15.30;;;10.18;;
32533;SDS011;18973;48.580;8.912;2024-03-22T06:39:22;20.02;;;10.25;;
32533;SDS011;18973;48.580;8.912;2024-03-22T06:41:48;17.95;;;10.38;;
32533;SDS011;18973;48.580;8.912;2024-03-22T06:44:13;20.63;;;10.00;;
32533;SDS011;18973;48.580;8.912;2024-03-22T06:46:39;16.63;;;10.40;;
32533;SDS011;18973;48.580;8.912;2024-03-22T06:49:05;17.60;;;10.75;;
32533;SDS011;18973;48.580;8.912;2024-03-22T06:51:31;13.93;;;9.18;;
32533;SDS011;18973;48.580;8.912;2024-03-22T06:53:56;16.60;;;10.82;;
32533;SDS011;18973;48.580;8.912;2024-03-22T06:56:22;18.50;;;10.52;;
32533;SDS011;18973;48.580;8.912;2024-03-22T06:58:48;15.55;;;9.75;;
32533;SDS011;18973;48.580;8.912;2024-03-22T07:01:13;15.20;;;10.25;;
32533;SDS011;18973;48.580;8.912;2024-03-22T07:03:39;16.40;;;10.32;;
32533;SDS011;18973;48.580;8.912;2024-03-22T07:06:05;16.08;;;10.32;;
32533;SDS011;18973;48.580;8.912;2024-03-22T07:08:33;16.45;;;9.70;;
32533;SDS011;18973;48.580;8.912;2024-03-22T07:10:59;18.88;;;10.63;;
32533;SDS011;18973;48.580;8.912;2024-03-22T07:13:24;17.85;;;10.55;;
32533;SDS011;18973;48.580;8.912;2024-03-22T07:15:50;22.27;;;9.75;;
32533;SDS011;18973;48.580;8.912;2024-03-22T07:18:16;17.85;;;9.80;;
32533;SDS011;18973;48.580;8.912;2024-03-22T07:20:42;13.05;;;8.25;;
32533;SDS011;18973;48.580;8.912;2024-03-22T07:23:08;20.63;;;10.05;;
32533;SDS011;18973;48.580;8.912;2024-03-22T07:25:34;20.33;;;9.05;;
32533;SDS011;18973;48.580;8.912;2024-03-22T07:28:00;18.55;;;8.98;;
32533;SDS011;18973;48.580;8.912;2024-03-22T07:30:25;14.60;;;8.35;;
32533;SDS011;18973;48.580;8.912;2024-03-22T07:32:51;12.60;;;7.78;;
32533;SDS011;18973;48.580;8.912;2024-03-22T07:35:17;18.92;;;8.85;;
32533;SDS011;18973;48.580;8.912;2024-03-22T07:37:42;19.15;;;8.75;;
32533;SDS011;18973;48.580;8.912;2024-03-22T07:40:08;13.40;;;8.45;;
32533;SDS011;18973;48.580;8.912;2024-03-22T07:42:34;15.93;;;8.80;;
32533;SDS011;18973;48.580;8.912;2024-03-22T07:45:00;14.93;;;9.05;;
32533;SDS011;18973;48.580;8.912;2024-03-22T07:47:27;14.68;;;8.25;;
32533;SDS011;18973;48.580;8.912;2024-03-22T07:49:53;16.02;;;8.38;;
32533;SDS011;18973;48.580;8.912;2024-03-22T07:52:19;12.45;;;8.02;;
32533;SDS011;18973;48.580;8.912;2024-03-22T07:54:45;13.20;;;8.57;;
32533;SDS011;18973;48.580;8.912;2024-03-22T07:57:10;16.42;;;8.68;;
32533;SDS011;18973;48.580;8.912;2024-03-22T07:59:36;16.90;;;8.98;;
32533;SDS011;18973;48.580;8.912;2024-03-22T08:02:02;20.90;;;9.18;;
32533;SDS011;18973;48.580;8.912;2024-03-22T08:04:28;15.90;;;9.20;;
32533;SDS011;18973;48.580;8.912;2024-03-22T08:06:54;14.45;;;8.27;;
32533;SDS011;18973;48.580;8.912;2024-03-22T08:09:20;15.55;;;9.25;;
32533;SDS011;18973;48.580;8.912;2024-03-22T08:11:46;14.40;;;8.13;;
32533;SDS011;18973;48.580;8.912;2024-03-22T08:14:12;13.05;;;8.07;;
32533;SDS011;18973;48.580;8.912;2024-03-22T08:16:38;14.80;;;8.73;;
32533;SDS011;18973;48.580;8.912;2024-03-22T08:19:04;17.92;;;8.30;;
32533;SDS011;18973;48.580;8.912;2024-03-22T08:21:30;17.63;;;8.55;;
32533;SDS011;18973;48.580;8.912;2024-03-22T08:23:55;18.13;;;8.32;;
32533;SDS011;18973;48.580;8.912;2024-03-22T08:26:21;13.25;;;8.20;;
32533;SDS011;18973;48.580;8.912;2024-03-22T08:28:47;14.02;;;7.55;;
32533;SDS011;18973;48.580;8.912;2024-03-22T08:31:13;16.83;;;7.85;;
32533;SDS011;18973;48.580;8.912;2024-03-22T08:33:39;13.65;;;7.50;;
32533;SDS011;18973;48.580;8.912;2024-03-22T08:36:05;16.42;;;7.90;;
32533;SDS011;18973;48.580;8.912;2024-03-22T08:38:31;13.68;;;8.45;;
32533;SDS011;18973;48.580;8.912;2024-03-22T08:40:56;19.23;;;8.20;;
32533;SDS011;18973;48.580;8.912;2024-03-22T08:43:22;15.32;;;7.75;;
32533;SDS011;18973;48.580;8.912;2024-03-22T08:45:50;15.25;;;8.18;;
32533;SDS011;18973;48.580;8.912;2024-03-22T08:48:16;16.38;;;8.52;;
32533;SDS011;18973;48.580;8.912;2024-03-22T08:50:43;13.07;;;8.18;;
32533;SDS011;18973;48.580;8.912;2024-03-22T08:53:11;16.83;;;8.02;;
32533;SDS011;18973;48.580;8.912;2024-03-22T08:55:37;14.05;;;8.10;;
32533;SDS011;18973;48.580;8.912;2024-03-22T08:58:03;13.30;;;7.70;;
32533;SDS011;18973;48.580;8.912;2024-03-22T09:00:30;10.20;;;7.88;;
32533;SDS011;18973;48.580;8.912;2024-03-22T09:02:55;14.63;;;7.55;;
32533;SDS011;18973;48.580;8.912;2024-03-22T09:05:21;12.73;;;8.02;;
32533;SDS011;18973;48.580;8.912;2024-03-22T09:07:47;11.38;;;7.90;;
32533;SDS011;18973;48.580;8.912;2024-03-22T09:10:13;15.10;;;8.65;;
32533;SDS011;18973;48.580;8.912;2024-03-22T09:12:39;16.83;;;8.32;;
32533;SDS011;18973;48.580;8.912;2024-03-22T09:15:05;15.15;;;8.00;;
32533;SDS011;18973;48.580;8.912;2024-03-22T09:17:32;15.02;;;8.80;;
32533;SDS011;18973;48.580;8.912;2024-03-22T09:19:58;16.55;;;8.35;;
32533;SDS011;18973;48.580;8.912;2024-03-22T09:22:24;13.48;;;8.73;;
32533;SDS011;18973;48.580;8.912;2024-03-22T09:24:49;14.60;;;9.13;;
32533;SDS011;18973;48.580;8.912;2024-03-22T09:27:15;13.05;;;7.63;;
32533;SDS011;18973;48.580;8.912;2024-03-22T09:29:41;13.05;;;8.20;;
32533;SDS011;18973;48.580;8.912;2024-03-22T09:32:08;10.77;;;8.15;;
32533;SDS011;18973;48.580;8.912;2024-03-22T09:34:36;13.18;;;7.85;;
32533;SDS011;18973;48.580;8.912;2024-03-22T09:37:02;14.45;;;8.57;;
32533;SDS011;18973;48.580;8.912;2024-03-22T09:39:28;11.60;;;7.40;;
32533;SDS011;18973;48.580;8.912;2024-03-22T09:41:55;15.80;;;8.70;;
32533;SDS011;18973;48.580;8.912;2024-03-22T09:44:22;12.63;;;7.13;;
32533;SDS011;18973;48.580;8.912;2024-03-22T09:46:48;14.02;;;7.28;;
32533;SDS011;18973;48.580;8.912;2024-03-22T09:49:15;10.55;;;6.78;;
32533;SDS011;18973;48.580;8.912;2024-03-22T09:51:42;14.10;;;7.75;;
32533;SDS011;18973;48.580;8.912;2024-03-22T09:54:09;14.57;;;7.20;;
32533;SDS011;18973;48.580;8.912;2024-03-22T09:56:40;13.38;;;7.05;;
32533;SDS011;18973;48.580;8.912;2024-03-22T09:59:07;12.05;;;7.53;;
32533;SDS011;18973;48.580;8.912;2024-03-22T10:01:34;11.77;;;7.65;;
32533;SDS011;18973;48.580;8.912;2024-03-22T10:04:00;12.40;;;7.18;;
32533;SDS011;18973;48.580;8.912;2024-03-22T10:06:26;15.75;;;7.50;;
32533;SDS011;18973;48.580;8.912;2024-03-22T10:08:51;14.35;;;7.00;;
32533;SDS011;18973;48.580;8.912;2024-03-22T10:11:18;12.23;;;6.78;;
32533;SDS011;18973;48.580;8.912;2024-03-22T10:13:44;12.05;;;6.75;;
32533;SDS011;18973;48.580;8.912;2024-03-22T10:16:10;11.15;;;7.28;;
32533;SDS011;18973;48.580;8.912;2024-03-22T10:18:35;8.93;;;6.38;;
32533;SDS011;18973;48.580;8.912;2024-03-22T10:21:02;9.98;;;6.97;;
32533;SDS011;18973;48.580;8.912;2024-03-22T10:23:29;12.60;;;6.82;;
32533;SDS011;18973;48.580;8.912;2024-03-22T10:25:58;12.80;;;7.15;;
32533;SDS011;18973;48.580;8.912;2024-03-22T10:28:25;13.43;;;7.55;;
32533;SDS011;18973;48.580;8.912;2024-03-22T10:30:51;12.98;;;7.38;;
32533;SDS011;18973;48.580;8.912;2024-03-22T10:33:21;15.95;;;8.05;;
32533;SDS011;18973;48.580;8.912;2024-03-22T10:35:51;11.30;;;6.88;;
32533;SDS011;18973;48.580;8.912;2024-03-22T10:38:19;11.00;;;6.38;;
32533;SDS011;18973;48.580;8.912;2024-03-22T10:40:45;10.65;;;5.97;;
32533;SDS011;18973;48.580;8.912;2024-03-22T10:43:13;13.80;;;8.05;;
32533;SDS011;18973;48.580;8.912;2024-03-22T10:45:42;12.40;;;7.13;;
32533;SDS011;18973;48.580;8.912;2024-03-22T10:48:13;12.63;;;6.95;;
32533;SDS011;18973;48.580;8.912;2024-03-22T10:50:42;12.38;;;6.07;;
32533;SDS011;18973;48.580;8.912;2024-03-22T10:53:12;14.35;;;6.70;;
32533;SDS011;18973;48.580;8.912;2024-03-22T10:55:46;10.85;;;6.97;;
32533;SDS011;18973;48.580;8.912;2024-03-22T10:58:15;12.95;;;7.82;;
32533;SDS011;18973;48.580;8.912;2024-03-22T11:00:47;9.35;;;6.53;;
32533;SDS011;18973;48.580;8.912;2024-03-22T11:03:16;11.85;;;6.60;;
32533;SDS011;18973;48.580;8.912;2024-03-22T11:05:47;12.15;;;7.00;;
32533;SDS011;18973;48.580;8.912;2024-03-22T11:08:23;15.85;;;6.65;;
32533;SDS011;18973;48.580;8.912;2024-03-22T11:13:16;14.02;;;6.22;;
32533;SDS011;18973;48.580;8.912;2024-03-22T11:15:43;11.20;;;6.45;;
32533;SDS011;18973;48.580;8.912;2024-03-22T11:18:09;13.50;;;5.97;;
32533;SDS011;18973;48.580;8.912;2024-03-22T11:20:37;10.63;;;6.13;;
32533;SDS011;18973;48.580;8.912;2024-03-22T11:23:04;8.48;;;5.28;;
32533;SDS011;18973;48.580;8.912;2024-03-22T11:25:33;9.85;;;5.13;;
32533;SDS011;18973;48.580;8.912;2024-03-22T11:27:59;13.38;;;6.35;;
32533;SDS011;18973;48.580;8.912;2024-03-22T11:30:28;13.60;;;5.30;;
32533;SDS011;18973;48.580;8.912;2024-03-22T11:32:55;8.93;;;5.63;;
32533;SDS011;18973;48.580;8.912;2024-03-22T11:35:21;7.40;;;5.18;;
32533;SDS011;18973;48.580;8.912;2024-03-22T11:37:48;9.95;;;6.13;;
32533;SDS011;18973;48.580;8.912;2024-03-22T11:40:14;7.97;;;4.65;;
32533;SDS011;18973;48.580;8.912;2024-03-22T11:42:41;8.73;;;5.50;;
32533;SDS011;18973;48.580;8.912;2024-03-22T11:45:09;7.35;;;4.45;;
32533;SDS011;18973;48.580;8.912;2024-03-22T11:47:36;8.88;;;5.22;;
32533;SDS011;18973;48.580;8.912;2024-03-22T11:50:02;10.93;;;4.85;;
32533;SDS011;18973;48.580;8.912;2024-03-22T11:52:28;10.32;;;4.43;;
32533;SDS011;18973;48.580;8.912;2024-03-22T11:54:55;7.78;;;4.60;;
32533;SDS011;18973;48.580;8.912;2024-03-22T11:57:22;6.43;;;3.97;;
32533;SDS011;18973;48.580;8.912;2024-03-22T11:59:48;9.13;;;4.70;;
32533;SDS011;18973;48.580;8.912;2024-03-22T12:02:14;7.70;;;4.22;;
32533;SDS011;18973;48.580;8.912;2024-03-22T12:04:41;9.90;;;4.07;;
32533;SDS011;18973;48.580;8.912;2024-03-22T12:07:11;5.28;;;3.63;;
32533;SDS011;18973;48.580;8.912;2024-03-22T12:09:41;8.02;;;3.45;;
32533;SDS011;18973;48.580;8.912;2024-03-22T12:12:07;7.65;;;4.38;;
32533;SDS011;18973;48.580;8.912;2024-03-22T12:14:35;11.23;;;4.65;;
32533;SDS011;18973;48.580;8.912;2024-03-22T12:17:04;10.07;;;4.18;;
32533;SDS011;18973;48.580;8.912;2024-03-22T12:19:30;7.50;;;3.38;;
32533;SDS011;18973;48.580;8.912;2024-03-22T12:21:56;5.90;;;3.30;;
32533;SDS011;18973;48.580;8.912;2024-03-22T12:24:25;7.28;;;3.38;;
32533;SDS011;18973;48.580;8.912;2024-03-22T12:26:54;6.53;;;3.50;;
32533;SDS011;18973;48.580;8.912;2024-03-22T12:29:20;6.28;;;4.07;;
32533;SDS011;18973;48.580;8.912;2024-03-22T12:31:46;8.20;;;2.88;;
32533;SDS011;18973;48.580;8.912;2024-03-22T12:34:12;4.90;;;3.00;;
32533;SDS011;18973;48.580;8.912;2024-03-22T12:36:38;5.93;;;2.90;;
32533;SDS011;18973;48.580;8.912;2024-03-22T12:39:04;5.50;;;2.38;;
32533;SDS011;18973;48.580;8.912;2024-03-22T12:41:30;4.65;;;2.20;;
32533;SDS011;18973;48.580;8.912;2024-03-22T12:43:56;6.15;;;2.15;;
32533;SDS011;18973;48.580;8.912;2024-03-22T12:46:22;6.93;;;2.53;;
32533;SDS011;18973;48.580;8.912;2024-03-22T12:48:48;6.72;;;2.00;;
32533;SDS011;18973;48.580;8.912;2024-03-22T12:51:14;7.25;;;2.45;;
32533;SDS011;18973;48.580;8.912;2024-03-22T12:53:40;2.15;;;1.63;;
32533;SDS011;18973;48.580;8.912;2024-03-22T12:56:06;8.50;;;2.60;;
32533;SDS011;18973;48.580;8.912;2024-03-22T12:58:33;6.47;;;3.33;;
32533;SDS011;18973;48.580;8.912;2024-03-22T13:00:59;5.55;;;2.00;;
32533;SDS011;18973;48.580;8.912;2024-03-22T13:03:26;7.55;;;2.00;;
32533;SDS011;18973;48.580;8.912;2024-03-22T13:05:52;16.02;;;4.03;;
32533;SDS011;18973;48.580;8.912;2024-03-22T13:08:19;2.85;;;1.70;;
32533;SDS011;18973;48.580;8.912;2024-03-22T13:10:45;3.20;;;1.45;;
32533;SDS011;18973;48.580;8.912;2024-03-22T13:13:12;3.63;;;2.20;;
32533;SDS011;18973;48.580;8.912;2024-03-22T13:15:40;3.72;;;1.88;;
32533;SDS011;18973;48.580;8.912;2024-03-22T13:18:06;5.80;;;2.28;;
32533;SDS011;18973;48.580;8.912;2024-03-22T13:20:35;4.70;;;2.08;;
32533;SDS011;18973;48.580;8.912;2024-03-22T13:23:01;3.00;;;1.70;;
32533;SDS011;18973;48.580;8.912;2024-03-22T13:25:27;2.30;;;1.27;;
32533;SDS011;18973;48.580;8.912;2024-03-22T13:27:53;3.85;;;1.70;;
32533;SDS011;18973;48.580;8.912;2024-03-22T13:30:19;4.47;;;1.80;;
32533;SDS011;18973;48.580;8.912;2024-03-22T13:32:44;2.55;;;1.45;;
32533;SDS011;18973;48.580;8.912;2024-03-22T13:35:10;5.07;;;1.85;;
32533;SDS011;18973;48.580;8.912;2024-03-22T13:37:36;0.63;;;0.63;;
32533;SDS011;18973;48.580;8.912;2024-03-22T13:40:02;1.77;;;0.77;;
32533;SDS011;18973;48.580;8.912;2024-03-22T13:42:28;2.72;;;0.60;;
32533;SDS011;18973;48.580;8.912;2024-03-22T13:44:53;1.33;;;0.55;;
32533;SDS011;18973;48.580;8.912;2024-03-22T13:47:21;2.35;;;0.80;;
32533;SDS011;18973;48.580;8.912;2024-03-22T13:49:47;0.73;;;0.57;;
32533;SDS011;18973;48.580;8.912;2024-03-22T13:52:13;2.03;;;0.90;;
32533;SDS011;18973;48.580;8.912;2024-03-22T13:54:39;2.35;;;0.70;;
32533;SDS011;18973;48.580;8.912;2024-03-22T13:57:05;1.73;;;0.70;;
32533;SDS011;18973;48.580;8.912;2024-03-22T13:59:31;0.73;;;0.50;;
32533;SDS011;18973;48.580;8.912;2024-03-22T14:01:57;1.10;;;0.40;;
32533;SDS011;18973;48.580;8.912;2024-03-22T14:04:23;1.73;;;0.80;;
32533;SDS011;18973;48.580;8.912;2024-03-22T14:06:51;1.23;;;0.65;;
32533;SDS011;18973;48.580;8.912;2024-03-22T14:09:17;2.45;;;0.63;;
32533;SDS011;18973;48.580;8.912;2024-03-22T14:11:43;1.38;;;0.50;;
32533;SDS011;18973;48.580;8.912;2024-03-22T14:14:11;2.15;;;0.75;;
32533;SDS011;18973;48.580;8.912;2024-03-22T14:16:37;2.22;;;0.88;;
32533;SDS011;18973;48.580;8.912;2024-03-22T14:19:04;4.28;;;1.05;;
32533;SDS011;18973;48.580;8.912;2024-03-22T14:21:29;2.60;;;0.70;;
32533;SDS011;18973;48.580;8.912;2024-03-22T14:23:55;1.30;;;0.77;;
32533;SDS011;18973;48.580;8.912;2024-03-22T14:26:21;2.55;;;0.93;;
32533;SDS011;18973;48.580;8.912;2024-03-22T14:28:48;1.67;;;0.70;;